sensor_id;sensor_type;location;lat;lon;timestamp;temperature;humidity
16134;DHT22;8172;45.018;5.972;2022-09-01T00:04:31;17.00;69.90
16134;DHT22;8172;45.018;5.972;2022-09-01T00:09:39;16.90;70.00
16134;DHT22;8172;45.018;5.972;2022-09-01T00:14:47;17.00;70.10
16134;DHT22;8172;45.018;5.972;2022-09-01T00:19:54;17.00;70.10
16134;DHT22;8172;45.018;5.972;2022-09-01T00:25:02;17.00;70.10
16134;DHT22;8172;45.018;5.972;2022-09-01T00:30:10;16.90;70.00
16134;DHT22;8172;45.018;5.972;2022-09-01T00:35:18;16.90;69.90
16134;DHT22;8172;45.018;5.972;2022-09-01T00:40:26;16.90;69.90
16134;DHT22;8172;45.018;5.972;2022-09-01T00:45:33;16.90;69.70
16134;DHT22;8172;45.018;5.972;2022-09-01T00:50:41;16.80;69.80
16134;DHT22;8172;45.018;5.972;2022-09-01T00:55:50;16.80;69.90
16134;DHT22;8172;45.018;5.972;2022-09-01T01:00:58;16.70;69.80
16134;DHT22;8172;45.018;5.972;2022-09-01T01:06:07;16.70;69.80
16134;DHT22;8172;45.018;5.972;2022-09-01T01:11:17;16.70;69.80
16134;DHT22;8172;45.018;5.972;2022-09-01T01:16:26;16.60;69.70
16134;DHT22;8172;45.018;5.972;2022-09-01T01:21:37;16.50;69.70
16134;DHT22;8172;45.018;5.972;2022-09-01T01:26:47;16.50;69.60
16134;DHT22;8172;45.018;5.972;2022-09-01T01:31:55;16.50;69.80
16134;DHT22;8172;45.018;5.972;2022-09-01T01:37:03;16.40;69.90
16134;DHT22;8172;45.018;5.972;2022-09-01T01:42:11;16.40;70.10
16134;DHT22;8172;45.018;5.972;2022-09-01T01:47:21;16.40;70.20
16134;DHT22;8172;45.018;5.972;2022-09-01T01:52:32;16.40;70.20
16134;DHT22;8172;45.018;5.972;2022-09-01T01:57:45;16.30;70.20
16134;DHT22;8172;45.018;5.972;2022-09-01T02:03:00;16.30;70.30
16134;DHT22;8172;45.018;5.972;2022-09-01T02:08:09;16.20;70.40
16134;DHT22;8172;45.018;5.972;2022-09-01T02:13:21;16.20;70.40
16134;DHT22;8172;45.018;5.972;2022-09-01T02:18:34;16.20;70.50
16134;DHT22;8172;45.018;5.972;2022-09-01T02:23:42;16.10;70.60
16134;DHT22;8172;45.018;5.972;2022-09-01T02:28:49;16.10;70.60
16134;DHT22;8172;45.018;5.972;2022-09-01T02:33:58;16.10;70.70
16134;DHT22;8172;45.018;5.972;2022-09-01T02:39:06;16.10;70.80
16134;DHT22;8172;45.018;5.972;2022-09-01T02:44:13;16.10;70.80
16134;DHT22;8172;45.018;5.972;2022-09-01T02:49:22;16.10;70.90
16134;DHT22;8172;45.018;5.972;2022-09-01T02:54:31;16.10;71.00
16134;DHT22;8172;45.018;5.972;2022-09-01T02:59:39;16.10;71.10
16134;DHT22;8172;45.018;5.972;2022-09-01T03:04:49;16.10;71.20
16134;DHT22;8172;45.018;5.972;2022-09-01T03:09:57;16.10;71.10
16134;DHT22;8172;45.018;5.972;2022-09-01T03:15:05;16.10;71.20
16134;DHT22;8172;45.018;5.972;2022-09-01T03:20:16;16.10;71.10
16134;DHT22;8172;45.018;5.972;2022-09-01T03:25:26;16.10;71.00
16134;DHT22;8172;45.018;5.972;2022-09-01T03:30:36;16.10;71.20
16134;DHT22;8172;45.018;5.972;2022-09-01T03:35:45;16.00;71.20
16134;DHT22;8172;45.018;5.972;2022-09-01T03:40:57;16.00;71.20
16134;DHT22;8172;45.018;5.972;2022-09-01T03:46:05;16.00;71.20
16134;DHT22;8172;45.018;5.972;2022-09-01T03:51:15;16.00;71.20
16134;DHT22;8172;45.018;5.972;2022-09-01T03:56:26;15.90;71.20
16134;DHT22;8172;45.018;5.972;2022-09-01T04:01:33;15.90;71.20
16134;DHT22;8172;45.018;5.972;2022-09-01T04:06:44;15.90;71.20
16134;DHT22;8172;45.018;5.972;2022-09-01T04:11:53;15.90;71.20
16134;DHT22;8172;45.018;5.972;2022-09-01T04:17:01;15.80;71.20
16134;DHT22;8172;45.018;5.972;2022-09-01T04:22:10;15.80;71.20
16134;DHT22;8172;45.018;5.972;2022-09-01T04:27:20;15.70;71.20
16134;DHT22;8172;45.018;5.972;2022-09-01T04:32:30;15.70;71.20
16134;DHT22;8172;45.018;5.972;2022-09-01T04:37:39;15.70;71.10
16134;DHT22;8172;45.018;5.972;2022-09-01T04:42:46;15.70;71.20
16134;DHT22;8172;45.018;5.972;2022-09-01T04:47:54;15.70;71.10
16134;DHT22;8172;45.018;5.972;2022-09-01T04:53:03;15.60;71.20
16134;DHT22;8172;45.018;5.972;2022-09-01T04:58:15;15.60;71.10
16134;DHT22;8172;45.018;5.972;2022-09-01T05:03:22;15.60;71.20
16134;DHT22;8172;45.018;5.972;2022-09-01T05:08:31;15.50;71.20
16134;DHT22;8172;45.018;5.972;2022-09-01T05:13:44;15.50;71.20
16134;DHT22;8172;45.018;5.972;2022-09-01T05:18:54;15.50;71.30
16134;DHT22;8172;45.018;5.972;2022-09-01T05:24:04;15.50;71.40
16134;DHT22;8172;45.018;5.972;2022-09-01T05:29:15;15.50;71.60
16134;DHT22;8172;45.018;5.972;2022-09-01T05:34:25;15.50;71.60
16134;DHT22;8172;45.018;5.972;2022-09-01T05:39:35;15.50;71.60
16134;DHT22;8172;45.018;5.972;2022-09-01T05:44:44;15.50;71.70
16134;DHT22;8172;45.018;5.972;2022-09-01T05:49:54;15.50;71.70
16134;DHT22;8172;45.018;5.972;2022-09-01T05:55:04;15.50;71.70
16134;DHT22;8172;45.018;5.972;2022-09-01T06:00:15;15.50;71.70
16134;DHT22;8172;45.018;5.972;2022-09-01T06:05:24;15.50;71.80
16134;DHT22;8172;45.018;5.972;2022-09-01T06:10:33;15.50;72.10
16134;DHT22;8172;45.018;5.972;2022-09-01T06:15:43;15.50;72.20
16134;DHT22;8172;45.018;5.972;2022-09-01T06:20:52;15.50;72.30
16134;DHT22;8172;45.018;5.972;2022-09-01T06:26:00;15.50;72.40
16134;DHT22;8172;45.018;5.972;2022-09-01T06:31:09;15.50;72.60
16134;DHT22;8172;45.018;5.972;2022-09-01T06:36:18;15.50;72.70
16134;DHT22;8172;45.018;5.972;2022-09-01T06:41:28;15.50;72.90
16134;DHT22;8172;45.018;5.972;2022-09-01T06:46:38;15.60;73.00
16134;DHT22;8172;45.018;5.972;2022-09-01T06:51:47;15.60;73.10
16134;DHT22;8172;45.018;5.972;2022-09-01T06:56:57;15.70;73.30
16134;DHT22;8172;45.018;5.972;2022-09-01T07:02:07;15.70;73.40
16134;DHT22;8172;45.018;5.972;2022-09-01T07:07:17;15.80;73.50
16134;DHT22;8172;45.018;5.972;2022-09-01T07:12:30;15.90;73.60
16134;DHT22;8172;45.018;5.972;2022-09-01T07:17:39;15.90;73.70
16134;DHT22;8172;45.018;5.972;2022-09-01T07:22:49;16.00;73.60
16134;DHT22;8172;45.018;5.972;2022-09-01T07:28:00;16.00;73.70
16134;DHT22;8172;45.018;5.972;2022-09-01T07:33:10;16.10;73.70
16134;DHT22;8172;45.018;5.972;2022-09-01T07:38:22;16.10;73.60
16134;DHT22;8172;45.018;5.972;2022-09-01T07:43:32;16.10;73.60
16134;DHT22;8172;45.018;5.972;2022-09-01T07:48:43;16.20;73.60
16134;DHT22;8172;45.018;5.972;2022-09-01T07:53:54;16.20;73.60
16134;DHT22;8172;45.018;5.972;2022-09-01T07:59:04;16.30;73.80
16134;DHT22;8172;45.018;5.972;2022-09-01T08:04:13;16.50;73.80
16134;DHT22;8172;45.018;5.972;2022-09-01T08:09:25;16.70;73.60
16134;DHT22;8172;45.018;5.972;2022-09-01T08:14:36;16.90;73.50
16134;DHT22;8172;45.018;5.972;2022-09-01T08:19:44;17.10;73.30
16134;DHT22;8172;45.018;5.972;2022-09-01T08:24:54;17.30;73.00
16134;DHT22;8172;45.018;5.972;2022-09-01T08:30:05;17.50;72.60
16134;DHT22;8172;45.018;5.972;2022-09-01T08:35:15;17.70;72.40
16134;DHT22;8172;45.018;5.972;2022-09-01T08:40:26;17.90;72.10
16134;DHT22;8172;45.018;5.972;2022-09-01T08:50:50;18.20;72.00
16134;DHT22;8172;45.018;5.972;2022-09-01T08:55:59;18.40;72.00
16134;DHT22;8172;45.018;5.972;2022-09-01T09:01:13;18.60;71.60
16134;DHT22;8172;45.018;5.972;2022-09-01T09:16:47;19.00;71.20
16134;DHT22;8172;45.018;5.972;2022-09-01T09:21:59;19.00;70.90
16134;DHT22;8172;45.018;5.972;2022-09-01T09:27:07;19.00;71.20
16134;DHT22;8172;45.018;5.972;2022-09-01T09:32:20;19.00;71.40
16134;DHT22;8172;45.018;5.972;2022-09-01T09:37:30;19.00;71.40
16134;DHT22;8172;45.018;5.972;2022-09-01T09:42:57;19.10;71.30
16134;DHT22;8172;45.018;5.972;2022-09-01T09:47:53;19.20;71.30
16134;DHT22;8172;45.018;5.972;2022-09-01T09:58:18;19.20;71.60
16134;DHT22;8172;45.018;5.972;2022-09-01T10:03:37;19.20;71.50
16134;DHT22;8172;45.018;5.972;2022-09-01T10:08:52;19.30;71.50
16134;DHT22;8172;45.018;5.972;2022-09-01T10:19:26;19.70;71.40
16134;DHT22;8172;45.018;5.972;2022-09-01T10:24:57;19.90;71.30
16134;DHT22;8172;45.018;5.972;2022-09-01T10:30:16;20.10;70.40
16134;DHT22;8172;45.018;5.972;2022-09-01T10:35:29;20.30;70.20
16134;DHT22;8172;45.018;5.972;2022-09-01T10:40:40;20.40;68.90
16134;DHT22;8172;45.018;5.972;2022-09-01T10:45:48;20.50;67.40
16134;DHT22;8172;45.018;5.972;2022-09-01T11:17:11;20.70;68.40
16134;DHT22;8172;45.018;5.972;2022-09-01T11:22:23;20.60;67.80
16134;DHT22;8172;45.018;5.972;2022-09-01T11:32:45;20.60;68.40
16134;DHT22;8172;45.018;5.972;2022-09-01T11:38:01;20.60;68.20
16134;DHT22;8172;45.018;5.972;2022-09-01T11:43:13;20.60;67.20
16134;DHT22;8172;45.018;5.972;2022-09-01T11:48:31;20.70;67.20
16134;DHT22;8172;45.018;5.972;2022-09-01T11:53:53;20.80;67.10
16134;DHT22;8172;45.018;5.972;2022-09-01T11:59:12;20.90;65.50
16134;DHT22;8172;45.018;5.972;2022-09-01T12:04:34;21.00;66.00
16134;DHT22;8172;45.018;5.972;2022-09-01T12:09:49;21.20;65.60
16134;DHT22;8172;45.018;5.972;2022-09-01T12:15:09;21.30;64.80
16134;DHT22;8172;45.018;5.972;2022-09-01T12:20:25;21.40;65.20
16134;DHT22;8172;45.018;5.972;2022-09-01T12:25:37;21.50;64.60
16134;DHT22;8172;45.018;5.972;2022-09-01T12:30:51;21.70;65.00
16134;DHT22;8172;45.018;5.972;2022-09-01T12:41:33;21.80;64.70
16134;DHT22;8172;45.018;5.972;2022-09-01T12:46:46;21.80;64.60
16134;DHT22;8172;45.018;5.972;2022-09-01T13:07:43;21.90;63.30
16134;DHT22;8172;45.018;5.972;2022-09-01T13:12:55;22.00;63.00
16134;DHT22;8172;45.018;5.972;2022-09-01T13:18:10;22.00;62.60
16134;DHT22;8172;45.018;5.972;2022-09-01T13:23:24;22.10;61.90
16134;DHT22;8172;45.018;5.972;2022-09-01T13:28:32;22.20;61.80
16134;DHT22;8172;45.018;5.972;2022-09-01T13:33:54;22.30;61.40
16134;DHT22;8172;45.018;5.972;2022-09-01T13:39:15;22.30;60.90
16134;DHT22;8172;45.018;5.972;2022-09-01T13:44:32;22.40;60.00
16134;DHT22;8172;45.018;5.972;2022-09-01T13:49:45;22.30;59.60
16134;DHT22;8172;45.018;5.972;2022-09-01T13:54:54;22.40;58.80
16134;DHT22;8172;45.018;5.972;2022-09-01T14:00:05;22.30;59.70
16134;DHT22;8172;45.018;5.972;2022-09-01T14:05:17;22.40;59.40
16134;DHT22;8172;45.018;5.972;2022-09-01T14:10:36;22.40;59.10
16134;DHT22;8172;45.018;5.972;2022-09-01T14:15:46;22.50;56.60
16134;DHT22;8172;45.018;5.972;2022-09-01T14:20:55;22.60;56.40
16134;DHT22;8172;45.018;5.972;2022-09-01T14:26:09;22.60;56.00
16134;DHT22;8172;45.018;5.972;2022-09-01T14:31:18;22.70;55.80
16134;DHT22;8172;45.018;5.972;2022-09-01T14:36:28;22.80;54.70
16134;DHT22;8172;45.018;5.972;2022-09-01T14:41:37;22.90;53.40
16134;DHT22;8172;45.018;5.972;2022-09-01T14:47:04;22.90;52.30
16134;DHT22;8172;45.018;5.972;2022-09-01T14:52:17;23.10;51.60
16134;DHT22;8172;45.018;5.972;2022-09-01T14:57:27;23.10;50.20
16134;DHT22;8172;45.018;5.972;2022-09-01T15:02:37;23.10;50.50
16134;DHT22;8172;45.018;5.972;2022-09-01T15:07:49;23.20;51.50
16134;DHT22;8172;45.018;5.972;2022-09-01T15:13:04;23.30;52.10
16134;DHT22;8172;45.018;5.972;2022-09-01T15:18:28;23.40;52.40
16134;DHT22;8172;45.018;5.972;2022-09-01T15:23:38;23.40;52.20
16134;DHT22;8172;45.018;5.972;2022-09-01T15:28:48;23.50;52.50
16134;DHT22;8172;45.018;5.972;2022-09-01T15:34:03;23.60;52.50
16134;DHT22;8172;45.018;5.972;2022-09-01T15:39:22;23.50;52.30
16134;DHT22;8172;45.018;5.972;2022-09-01T15:44:38;23.30;53.00
16134;DHT22;8172;45.018;5.972;2022-09-01T15:49:45;23.10;53.20
16134;DHT22;8172;45.018;5.972;2022-09-01T15:54:55;22.90;54.00
16134;DHT22;8172;45.018;5.972;2022-09-01T16:00:06;22.70;54.40
16134;DHT22;8172;45.018;5.972;2022-09-01T16:05:17;22.50;54.80
16134;DHT22;8172;45.018;5.972;2022-09-01T16:10:26;22.30;55.60
16134;DHT22;8172;45.018;5.972;2022-09-01T16:15:40;22.10;56.10
16134;DHT22;8172;45.018;5.972;2022-09-01T16:20:49;22.00;56.40
16134;DHT22;8172;45.018;5.972;2022-09-01T16:25:58;21.90;56.30
16134;DHT22;8172;45.018;5.972;2022-09-01T16:31:11;21.80;56.50
16134;DHT22;8172;45.018;5.972;2022-09-01T16:41:34;21.60;56.30
16134;DHT22;8172;45.018;5.972;2022-09-01T16:46:50;21.50;56.30
16134;DHT22;8172;45.018;5.972;2022-09-01T17:23:36;20.80;58.30
16134;DHT22;8172;45.018;5.972;2022-09-01T17:28:51;20.60;58.40
16134;DHT22;8172;45.018;5.972;2022-09-01T17:34:05;20.50;58.80
16134;DHT22;8172;45.018;5.972;2022-09-01T17:44:28;20.30;58.90
16134;DHT22;8172;45.018;5.972;2022-09-01T17:49:49;20.20;59.20
16134;DHT22;8172;45.018;5.972;2022-09-01T17:54:52;20.10;59.40
16134;DHT22;8172;45.018;5.972;2022-09-01T18:05:12;19.90;60.10
16134;DHT22;8172;45.018;5.972;2022-09-01T18:10:29;19.80;60.50
16134;DHT22;8172;45.018;5.972;2022-09-01T18:15:42;19.70;60.90
16134;DHT22;8172;45.018;5.972;2022-09-01T18:20:45;19.70;61.10
16134;DHT22;8172;45.018;5.972;2022-09-01T18:25:55;19.60;61.30
16134;DHT22;8172;45.018;5.972;2022-09-01T18:31:08;19.50;61.50
16134;DHT22;8172;45.018;5.972;2022-09-01T18:41:31;19.30;61.90
16134;DHT22;8172;45.018;5.972;2022-09-01T18:46:43;19.30;62.10
16134;DHT22;8172;45.018;5.972;2022-09-01T18:57:05;19.10;62.40
16134;DHT22;8172;45.018;5.972;2022-09-01T19:02:19;19.00;62.80
16134;DHT22;8172;45.018;5.972;2022-09-01T19:12:40;18.80;63.10
16134;DHT22;8172;45.018;5.972;2022-09-01T19:33:21;18.70;63.20
16134;DHT22;8172;45.018;5.972;2022-09-01T19:38:30;18.60;63.00
16134;DHT22;8172;45.018;5.972;2022-09-01T19:43:39;18.60;63.10
16134;DHT22;8172;45.018;5.972;2022-09-01T19:48:50;18.60;63.30
16134;DHT22;8172;45.018;5.972;2022-09-01T19:54:05;18.60;63.30
16134;DHT22;8172;45.018;5.972;2022-09-01T19:59:13;18.60;63.40
16134;DHT22;8172;45.018;5.972;2022-09-01T20:04:21;18.60;63.70
16134;DHT22;8172;45.018;5.972;2022-09-01T20:19:56;18.40;64.40
16134;DHT22;8172;45.018;5.972;2022-09-01T20:25:04;18.40;64.40
16134;DHT22;8172;45.018;5.972;2022-09-01T20:30:15;18.40;64.10
16134;DHT22;8172;45.018;5.972;2022-09-01T20:40:37;18.30;63.80
16134;DHT22;8172;45.018;5.972;2022-09-01T20:45:45;18.30;63.80
16134;DHT22;8172;45.018;5.972;2022-09-01T21:32:16;17.90;64.30
16134;DHT22;8172;45.018;5.972;2022-09-01T21:37:26;17.90;64.60
16134;DHT22;8172;45.018;5.972;2022-09-01T21:42:39;17.90;64.90
16134;DHT22;8172;45.018;5.972;2022-09-01T21:47:46;17.90;65.00
16134;DHT22;8172;45.018;5.972;2022-09-01T21:52:53;17.90;65.00
16134;DHT22;8172;45.018;5.972;2022-09-01T21:58:02;17.90;65.00
16134;DHT22;8172;45.018;5.972;2022-09-01T22:03:11;17.90;65.20
16134;DHT22;8172;45.018;5.972;2022-09-01T22:08:19;17.90;65.20
16134;DHT22;8172;45.018;5.972;2022-09-01T22:13:29;17.90;65.40
16134;DHT22;8172;45.018;5.972;2022-09-01T22:18:37;17.90;65.40
16134;DHT22;8172;45.018;5.972;2022-09-01T22:23:45;17.80;65.40
16134;DHT22;8172;45.018;5.972;2022-09-01T22:28:55;17.80;65.50
16134;DHT22;8172;45.018;5.972;2022-09-01T22:34:04;17.80;65.40
16134;DHT22;8172;45.018;5.972;2022-09-01T22:39:13;17.80;65.50
16134;DHT22;8172;45.018;5.972;2022-09-01T22:44:21;17.80;65.50
16134;DHT22;8172;45.018;5.972;2022-09-01T22:49:30;17.80;65.80
16134;DHT22;8172;45.018;5.972;2022-09-01T22:54:38;17.80;66.00
16134;DHT22;8172;45.018;5.972;2022-09-01T22:59:45;17.80;66.10
16134;DHT22;8172;45.018;5.972;2022-09-01T23:04:54;17.80;66.10
16134;DHT22;8172;45.018;5.972;2022-09-01T23:10:03;17.70;66.20
16134;DHT22;8172;45.018;5.972;2022-09-01T23:15:12;17.70;66.20
16134;DHT22;8172;45.018;5.972;2022-09-01T23:20:19;17.60;66.30
16134;DHT22;8172;45.018;5.972;2022-09-01T23:25:27;17.60;66.30
16134;DHT22;8172;45.018;5.972;2022-09-01T23:30:36;17.60;66.40
16134;DHT22;8172;45.018;5.972;2022-09-01T23:35:46;17.50;66.30
16134;DHT22;8172;45.018;5.972;2022-09-01T23:40:55;17.50;66.30
16134;DHT22;8172;45.018;5.972;2022-09-01T23:46:03;17.50;66.20
16134;DHT22;8172;45.018;5.972;2022-09-01T23:51:13;17.50;66.00
16134;DHT22;8172;45.018;5.972;2022-09-01T23:56:24;17.50;65.80
